Pagrindinis puslapis
METAR-TAF:

METAR-TAF

Oro uostai :

San Paulas, San Paulas, Brazilija

platuma: 23-31S, ilguma: 046-38W, Aukštis: 722 m

Dabartinis oras

Ataskaita buvo paskelbta 1 valandą ir 16 minutes, ne 21:00 UTC
Vėjas 3 kt iš Šiaurės, svyruoja nuo Šiaurės Vakarų ir Šiaurės
Temperatūra 31°C
Drėgmė 27%
Slėgis 1016 hPa
Matomumas 10 km arba daugiau
nėra debesų žemiau 1500 m ir nėra kamuolinių lietaus debesų

METAR: SBMT 162100Z 35003KT 310V010 CAVOK 31/10 Q1016

Laikas: 19:16 (22:16 UTC)


TAF: trūkstamas

Orai ataskaitas ir orų prognozės (METAR, TAF).

turimą stotys yra geltonos ir raudonos taškus žemėlapyje.

Perkelti pele per norėdami pamatyti stoties vardą.

Tada spustelėkite, norėdami matyti oro stebėjimo ir prognozės.

Norėdami pakeisti žemėlapį: spustelėkite ant žalios mygtukų su juodo kryžiaus žemyn,; žalią mygtuką su brūkšneliu, jei norite nutolinti; arba žalių rodyklių gretimoms žemėlapius.


METAR-TAF: